createdAt,value
2019-02-12T00:01:32.496Z,101034.95
2019-02-12T00:04:38.929Z,101047.00
2019-02-12T00:07:45.286Z,101052.94
2019-02-12T00:10:51.554Z,101062.66
2019-02-12T00:13:57.834Z,101077.39
2019-02-12T00:17:04.124Z,101083.52
2019-02-12T00:20:10.506Z,101074.66
2019-02-12T00:23:16.911Z,101094.12
2019-02-12T00:26:23.325Z,101093.48
2019-02-12T00:29:29.583Z,101091.23
2019-02-12T00:32:36.046Z,101102.44
2019-02-12T00:35:42.370Z,101100.97
2019-02-12T00:38:48.729Z,101108.44
2019-02-12T00:41:55.200Z,101104.56
2019-02-12T00:45:01.509Z,101113.09
2019-02-12T00:48:07.743Z,101120.61
2019-02-12T00:51:17.741Z,101139.41
2019-02-12T00:54:24.223Z,101135.88
2019-02-12T00:57:30.666Z,101131.22
2019-02-12T01:00:37.020Z,101121.20
2019-02-12T01:03:43.311Z,101137.28
2019-02-12T01:06:50.996Z,101143.91
2019-02-12T01:09:57.524Z,101136.85
2019-02-12T01:13:03.947Z,101146.75
2019-02-12T01:16:10.324Z,101155.41
2019-02-12T01:19:16.588Z,101173.30
2019-02-12T01:22:22.849Z,101175.81
2019-02-12T01:25:29.213Z,101170.72
2019-02-12T01:28:35.550Z,101191.16
2019-02-12T01:31:41.969Z,101197.69
2019-02-12T01:34:48.285Z,101190.55
2019-02-12T01:37:54.943Z,101205.39
2019-02-12T01:41:01.271Z,101207.23
2019-02-12T01:44:07.624Z,101220.77
2019-02-12T01:47:14.019Z,101220.33
2019-02-12T01:50:20.278Z,101220.40
2019-02-12T01:53:26.622Z,101231.52
2019-02-12T01:56:33.035Z,101232.02
2019-02-12T01:59:39.374Z,101239.79
2019-02-12T02:02:45.749Z,101257.21
2019-02-12T02:05:52.063Z,101254.97
2019-02-12T02:08:58.637Z,101262.20
2019-02-12T02:12:05.118Z,101269.61
2019-02-12T02:15:11.657Z,101275.16
2019-02-12T02:18:18.094Z,101290.38
2019-02-12T02:21:24.361Z,101284.94
2019-02-12T02:24:30.641Z,101299.53
2019-02-12T02:27:37.053Z,101305.63
2019-02-12T02:30:43.431Z,101299.18
2019-02-12T02:33:49.878Z,101318.91
2019-02-12T02:36:56.175Z,101318.91
2019-02-12T02:40:02.510Z,101326.56
2019-02-12T02:43:08.907Z,101334.17
2019-02-12T02:46:15.179Z,101344.98
2019-02-12T02:49:21.563Z,101348.37
2019-02-12T02:52:27.942Z,101352.44
2019-02-12T02:55:34.189Z,101363.47
2019-02-12T02:58:41.670Z,101362.73
2019-02-12T03:01:48.015Z,101371.64
2019-02-12T03:04:54.412Z,101376.02
2019-02-12T03:08:00.678Z,101326.00
2019-02-12T03:11:08.104Z,101406.75
2019-02-12T03:14:15.461Z,101414.50
2019-02-12T03:17:22.011Z,101413.45
2019-02-12T03:20:28.769Z,101421.02
2019-02-12T03:23:35.047Z,101427.09
2019-02-12T03:26:41.411Z,101440.34
2019-02-12T03:29:47.800Z,101441.10
2019-02-12T03:32:54.175Z,101443.55
2019-02-12T03:36:00.477Z,101443.87
2019-02-12T03:39:06.939Z,101456.64
2019-02-12T03:42:13.195Z,101461.67
2019-02-12T03:45:19.546Z,101468.38
2019-02-12T03:48:25.990Z,101478.69
2019-02-12T03:51:32.316Z,101486.63
2019-02-12T03:54:38.651Z,101486.58
2019-02-12T03:57:44.928Z,101493.80
2019-02-12T04:00:51.252Z,101502.80
2019-02-12T04:03:57.663Z,101496.25
2019-02-12T04:07:04.088Z,101504.28
2019-02-12T04:10:10.361Z,101507.55
2019-02-12T04:13:16.718Z,101515.58
2019-02-12T04:16:23.069Z,101509.98
2019-02-12T04:19:29.383Z,101512.09
2019-02-12T04:22:36.791Z,101521.13
2019-02-12T04:25:43.070Z,101523.03
2019-02-12T04:28:49.398Z,101531.94
2019-02-12T04:31:55.688Z,101531.70
2019-02-12T04:35:01.999Z,101534.77
2019-02-12T04:38:08.408Z,101547.91
2019-02-12T04:41:14.767Z,101541.22
2019-02-12T04:44:21.029Z,101541.08
2019-02-12T04:47:27.367Z,101535.96
2019-02-12T04:50:33.710Z,101543.27
2019-02-12T04:53:40.088Z,101548.50
2019-02-12T04:56:46.372Z,101555.19
2019-02-12T04:59:52.715Z,101550.34
2019-02-12T05:02:59.041Z,101565.17
2019-02-12T05:06:05.405Z,101556.53
2019-02-12T05:09:40.210Z,101566.41
2019-02-12T05:12:52.506Z,101567.12
2019-02-12T05:15:59.033Z,101570.28
2019-02-12T05:19:05.422Z,101570.18
2019-02-12T05:22:11.843Z,101579.53
2019-02-12T05:25:18.148Z,101581.73
2019-02-12T05:28:24.432Z,101554.73
2019-02-12T05:31:30.770Z,101597.68
2019-02-12T05:34:37.068Z,101593.29
2019-02-12T05:37:43.437Z,101597.52
2019-02-12T05:40:49.725Z,101594.12
2019-02-12T05:43:56.059Z,101612.84
2019-02-12T05:47:02.420Z,101623.67
2019-02-12T05:50:10.978Z,101626.33
2019-02-12T05:53:17.659Z,101626.34
2019-02-12T05:56:24.201Z,101633.50
2019-02-12T05:59:30.536Z,101641.97
2019-02-12T06:02:37.971Z,101648.19
2019-02-12T06:05:44.304Z,101656.95
2019-02-12T06:08:51.740Z,101662.38
2019-02-12T06:11:58.091Z,101655.57
2019-02-12T06:15:04.829Z,101660.19
2019-02-12T06:18:11.283Z,101680.52
2019-02-12T06:21:18.087Z,101676.02
2019-02-12T06:24:24.672Z,101687.55
2019-02-12T06:27:31.077Z,101692.68
2019-02-12T06:30:37.414Z,101686.70
2019-02-12T06:33:43.818Z,101693.73
2019-02-12T06:36:50.137Z,101697.24
2019-02-12T06:39:56.647Z,101707.94
2019-02-12T06:43:03.015Z,101706.53
2019-02-12T06:46:12.637Z,101712.52
2019-02-12T06:49:20.633Z,101708.34
2019-02-12T06:52:31.216Z,101711.56
2019-02-12T06:55:39.199Z,101719.30
2019-02-12T06:59:00.577Z,101726.11
2019-02-12T07:02:42.901Z,101732.29
2019-02-12T07:06:19.826Z,101736.30
2019-02-12T07:09:51.566Z,101739.42
2019-02-12T07:13:18.503Z,101740.70
2019-02-12T07:17:11.035Z,101738.14
2019-02-12T07:21:19.763Z,101738.14
2019-02-12T07:25:05.801Z,101739.13
2019-02-12T07:28:30.559Z,101739.56
2019-02-12T07:32:24.851Z,101753.48
2019-02-12T07:36:17.970Z,101754.62
2019-02-12T07:40:16.019Z,101755.37
2019-02-12T07:44:14.482Z,101763.40
2019-02-12T07:48:39.153Z,101762.78
2019-02-12T07:52:30.538Z,101760.76
2019-02-12T07:56:18.815Z,101769.41
2019-02-12T08:00:04.806Z,101770.62
2019-02-12T08:03:56.793Z,101770.59
2019-02-12T08:07:23.862Z,101780.84
2019-02-12T08:11:20.282Z,101794.61
2019-02-12T08:15:21.291Z,101796.91
2019-02-12T08:18:54.776Z,101805.19
2019-02-12T08:22:40.069Z,101814.80
2019-02-12T08:26:13.560Z,101822.50
2019-02-12T08:29:47.338Z,101811.45
2019-02-12T08:33:13.530Z,101820.11
2019-02-12T08:36:43.480Z,101834.02
2019-02-12T08:40:27.113Z,101828.41
2019-02-12T08:44:10.734Z,101824.98
2019-02-12T08:48:12.424Z,101829.10
2019-02-12T08:51:43.862Z,101829.39
2019-02-12T08:55:23.567Z,101819.09
2019-02-12T08:58:38.244Z,101828.87
2019-02-12T09:02:04.856Z,101839.00
2019-02-12T09:05:53.887Z,101837.77
2019-02-12T09:09:42.698Z,101838.97
2019-02-12T09:13:10.221Z,101843.80
2019-02-12T09:17:15.962Z,101855.36
2019-02-12T09:21:06.455Z,101856.94
2019-02-12T09:24:35.132Z,101851.16
2019-02-12T09:28:28.607Z,101862.23
2019-02-12T09:32:19.311Z,101871.15
2019-02-12T09:35:40.321Z,101862.59
2019-02-12T09:39:01.895Z,101864.30
2019-02-12T09:42:39.840Z,101868.78
2019-02-12T09:46:24.150Z,101877.33
2019-02-12T09:50:01.115Z,101872.98
2019-02-12T09:53:35.419Z,101873.72
2019-02-12T09:57:13.640Z,101882.42
2019-02-12T10:00:47.913Z,101873.23
2019-02-12T10:04:31.323Z,101878.20
2019-02-12T10:08:12.749Z,101880.87
2019-02-12T10:12:09.558Z,101876.25
2019-02-12T10:15:45.716Z,101887.63
2019-02-12T10:19:06.822Z,101905.90
2019-02-12T10:22:32.451Z,101905.90
2019-02-12T10:25:46.324Z,101895.70
2019-02-12T10:29:24.037Z,101886.75
2019-02-12T10:32:28.857Z,101884.92
2019-02-12T10:35:38.334Z,101891.88
2019-02-12T10:38:46.755Z,101906.83
2019-02-12T10:41:53.005Z,101895.91
2019-02-12T10:44:59.377Z,101904.55
2019-02-12T10:48:05.878Z,101896.85
2019-02-12T10:51:12.609Z,101903.34
2019-02-12T10:54:27.924Z,101913.43
2019-02-12T10:57:37.924Z,101898.68
2019-02-12T11:00:44.261Z,101904.08
2019-02-12T11:03:52.445Z,101910.20
2019-02-12T11:06:58.845Z,101907.97
2019-02-12T11:10:05.485Z,101910.92
2019-02-12T11:13:13.455Z,101921.20
2019-02-12T11:16:19.795Z,101916.75
2019-02-12T11:19:29.183Z,101915.45
2019-02-12T11:22:35.505Z,101910.70
2019-02-12T11:25:48.602Z,101909.28
2019-02-12T11:28:55.345Z,101918.23
2019-02-12T11:32:01.718Z,101918.23
2019-02-12T11:35:08.780Z,101920.20
2019-02-12T11:38:15.223Z,101932.14
2019-02-12T11:41:21.650Z,101932.89
2019-02-12T11:44:28.048Z,101934.20
2019-02-12T11:47:34.438Z,101941.63
2019-02-12T11:50:40.686Z,101938.48
2019-02-12T11:53:47.858Z,101942.77
2019-02-12T11:56:56.013Z,101942.74
2019-02-12T12:00:02.583Z,101940.11
2019-02-12T12:03:09.080Z,101944.78
2019-02-12T12:06:15.553Z,101950.83
2019-02-12T12:09:23.462Z,101950.09
2019-02-12T12:12:32.131Z,101928.84
2019-02-12T12:15:44.449Z,101945.72
2019-02-12T12:18:50.852Z,101944.86
2019-02-12T12:21:57.295Z,101952.55
2019-02-12T12:25:03.626Z,101953.61
2019-02-12T12:28:10.009Z,101955.47
2019-02-12T12:31:19.449Z,101950.58
2019-02-12T12:34:25.774Z,101959.53
2019-02-12T12:37:32.278Z,101961.73
2019-02-12T12:40:38.522Z,101974.39
2019-02-12T12:43:44.953Z,101971.33
2019-02-12T12:46:51.634Z,101975.86
2019-02-12T12:49:59.182Z,101979.69
2019-02-12T12:53:05.558Z,101983.41
2019-02-12T12:56:11.872Z,101977.61
2019-02-12T12:59:20.499Z,101984.53
2019-02-12T13:02:28.824Z,101982.72
2019-02-12T13:05:35.032Z,101992.67
2019-02-12T13:08:41.384Z,101980.95
2019-02-12T13:11:50.862Z,101985.39
2019-02-12T13:14:58.674Z,102000.59
2019-02-12T13:18:05.061Z,102003.79
2019-02-12T13:21:11.298Z,101993.61
2019-02-12T13:24:19.016Z,102014.88
2019-02-12T13:27:25.291Z,102013.02
2019-02-12T13:30:34.580Z,102019.04
2019-02-12T13:33:44.106Z,102007.48
2019-02-12T13:36:50.482Z,102012.91
2019-02-12T13:39:56.799Z,102018.02
2019-02-12T13:43:07.789Z,102016.08
2019-02-12T13:46:15.811Z,102022.66
2019-02-12T13:49:24.622Z,102016.68
2019-02-12T13:52:33.766Z,102015.10
2019-02-12T13:55:40.101Z,102021.16
2019-02-12T13:58:46.443Z,102008.12
2019-02-12T14:01:54.446Z,102018.51
2019-02-12T14:05:01.923Z,102034.27
2019-02-12T14:08:08.529Z,102023.13
2019-02-12T14:11:18.206Z,102017.15
2019-02-12T14:14:25.986Z,102027.67
2019-02-12T14:17:34.715Z,102035.02
2019-02-12T14:20:43.699Z,102031.30
2019-02-12T14:23:50.156Z,102027.17
2019-02-12T14:26:58.091Z,102030.46
2019-02-12T14:30:07.927Z,102029.06
2019-02-12T14:33:17.383Z,102035.44
2019-02-12T14:36:26.844Z,102044.70
2019-02-12T14:39:34.358Z,102045.81
2019-02-12T14:42:40.682Z,102039.80
2019-02-12T14:45:48.521Z,102045.95
2019-02-12T14:49:09.776Z,102044.23
2019-02-12T14:52:21.555Z,102048.74
2019-02-12T14:55:33.737Z,102052.28
2019-02-12T14:58:40.509Z,102060.83
2019-02-12T15:01:46.938Z,102068.30
2019-02-12T15:05:00.564Z,102078.18
2019-02-12T15:08:08.413Z,102089.55
2019-02-12T15:11:14.769Z,102085.03
2019-02-12T15:14:23.264Z,102078.80
2019-02-12T15:17:29.574Z,102079.91
2019-02-12T15:20:35.937Z,102078.78
2019-02-12T15:23:44.774Z,102075.01
2019-02-12T15:26:51.201Z,101989.34
2019-02-12T15:29:57.538Z,102077.94
2019-02-12T15:33:05.463Z,101881.23
2019-02-12T15:36:12.070Z,102076.46
2019-02-12T15:39:20.794Z,102074.63
2019-02-12T15:42:29.827Z,102088.19
2019-02-12T15:45:36.150Z,102077.18
2019-02-12T15:48:46.851Z,102078.55
2019-02-12T15:51:54.664Z,102071.20
2019-02-12T15:55:01.518Z,102079.50
2019-02-12T15:58:08.139Z,102074.86
2019-02-12T16:01:14.548Z,102061.80
2019-02-12T16:04:21.666Z,102060.81
2019-02-12T16:07:32.151Z,102063.03
2019-02-12T16:10:42.009Z,102070.00
2019-02-12T16:13:48.415Z,102067.41
2019-02-12T16:16:54.965Z,102080.48
2019-02-12T16:20:03.462Z,102075.69
2019-02-12T16:23:09.805Z,102080.69
2019-02-12T16:26:16.176Z,102082.17
2019-02-12T16:29:22.721Z,102071.78
2019-02-12T16:32:29.193Z,102070.09
2019-02-12T16:35:35.572Z,102068.38
2019-02-12T16:38:42.124Z,102066.77
2019-02-12T16:41:50.119Z,102065.19
2019-02-12T16:44:56.463Z,102073.01
2019-02-12T16:48:02.744Z,102071.78
2019-02-12T16:51:09.120Z,102068.84
2019-02-12T16:54:15.554Z,102062.77
2019-02-12T16:57:21.938Z,102069.59
2019-02-12T17:00:28.297Z,102068.27
2019-02-12T17:03:38.346Z,102072.16
2019-02-12T17:06:44.883Z,102073.73
2019-02-12T17:09:52.517Z,102067.87
2019-02-12T17:12:59.976Z,102061.39
2019-02-12T17:16:09.134Z,102057.37
2019-02-12T17:19:17.035Z,102055.19
2019-02-12T17:22:25.289Z,102059.21
2019-02-12T17:25:33.378Z,102058.27
2019-02-12T17:28:41.771Z,102052.50
2019-02-12T17:31:48.791Z,102042.16
2019-02-12T17:35:01.200Z,102049.22
2019-02-12T17:38:03.098Z,102051.05
2019-02-12T17:41:09.642Z,102040.81
2019-02-12T17:44:15.925Z,102050.17
2019-02-12T17:47:22.866Z,102053.58
2019-02-12T17:50:31.179Z,102045.05
2019-02-12T17:53:39.614Z,102037.48
2019-02-12T17:56:48.979Z,102040.55
2019-02-12T17:59:55.851Z,102035.05
2019-02-12T18:03:03.022Z,102034.09
2019-02-12T18:06:15.650Z,102045.88
2019-02-12T18:09:42.408Z,102032.63
2019-02-12T18:12:54.516Z,102031.77
2019-02-12T18:16:00.978Z,102027.60
2019-02-12T18:19:07.258Z,102041.28
2019-02-12T18:22:13.609Z,102031.02
2019-02-12T18:25:19.945Z,102037.72
2019-02-12T18:28:26.200Z,102035.16
2019-02-12T18:31:32.645Z,102037.22
2019-02-12T18:34:39.019Z,102035.16
2019-02-12T18:37:45.488Z,102039.55
2019-02-12T18:40:51.806Z,102033.81
2019-02-12T18:43:58.327Z,102018.70
2019-02-12T18:47:04.782Z,102022.92
2019-02-12T18:50:12.072Z,102012.62
2019-02-12T18:53:18.579Z,102003.46
2019-02-12T18:56:25.096Z,102006.64
2019-02-12T18:59:31.430Z,102019.69
2019-02-12T19:02:37.716Z,102011.26
2019-02-12T19:05:44.075Z,101995.38
2019-02-12T19:08:50.538Z,102000.52
2019-02-12T19:11:57.016Z,101998.23
2019-02-12T19:15:04.411Z,101985.80
2019-02-12T19:18:18.194Z,101986.37
2019-02-12T19:21:24.593Z,101975.39
2019-02-12T19:24:31.044Z,101975.39
2019-02-12T19:27:37.504Z,101990.52
2019-02-12T19:30:43.848Z,101975.50
2019-02-12T19:33:50.286Z,101976.25
2019-02-12T19:36:56.743Z,101971.75
2019-02-12T19:40:03.091Z,101970.87
2019-02-12T19:43:09.406Z,101973.47
2019-02-12T19:46:18.002Z,101957.47
2019-02-12T19:49:24.392Z,101957.47
2019-02-12T19:52:30.881Z,101952.22
2019-02-12T19:55:39.081Z,101962.81
2019-02-12T19:58:48.090Z,101949.54
2019-02-12T20:01:54.508Z,101940.73
2019-02-12T20:05:00.949Z,101943.80
2019-02-12T20:08:08.723Z,101934.27
2019-02-12T20:11:15.252Z,101931.98
2019-02-12T20:14:22.967Z,101934.33
2019-02-12T20:17:29.361Z,101921.28
2019-02-12T20:20:35.754Z,101923.83
2019-02-12T20:23:42.119Z,101924.66
2019-02-12T20:26:48.515Z,101919.81
2019-02-12T20:29:54.905Z,101918.36
2019-02-12T20:33:01.299Z,101914.94
2019-02-12T20:36:08.454Z,101916.64
2019-02-12T20:39:14.915Z,101911.05
2019-02-12T20:42:24.227Z,101895.66
2019-02-12T20:45:30.928Z,101895.92
2019-02-12T20:48:37.498Z,101883.23
2019-02-12T20:51:44.202Z,101877.53
2019-02-12T20:54:50.577Z,101871.17
2019-02-12T20:57:58.044Z,101872.91
2019-02-12T21:01:04.659Z,101863.89
2019-02-12T21:04:13.163Z,101864.34
2019-02-12T21:07:20.581Z,101860.11
2019-02-12T21:10:28.242Z,101845.34
2019-02-12T21:13:34.506Z,101842.66
2019-02-12T21:16:40.840Z,101837.19
2019-02-12T21:19:48.236Z,101825.12
2019-02-12T21:22:54.710Z,101830.34
2019-02-12T21:26:01.010Z,101824.61
2019-02-12T21:29:07.364Z,101815.11
2019-02-12T21:32:13.667Z,101817.18
2019-02-12T21:35:21.593Z,101815.22
2019-02-12T21:38:28.048Z,101805.83
2019-02-12T21:41:34.558Z,101792.16
2019-02-12T21:44:41.127Z,101792.16
2019-02-12T21:47:47.850Z,101792.87
2019-02-12T21:50:56.063Z,101792.89
2019-02-12T21:54:02.492Z,101783.97
2019-02-12T21:57:08.928Z,101781.29
2019-02-12T22:00:15.965Z,101781.44
2019-02-12T22:03:22.626Z,101776.94
2019-02-12T22:06:29.089Z,101762.77
2019-02-12T22:09:35.432Z,101758.42
2019-02-12T22:12:41.824Z,101750.83
2019-02-12T22:15:48.175Z,101739.72
2019-02-12T22:18:54.524Z,101739.38
2019-02-12T22:22:00.874Z,101730.06
2019-02-12T22:25:07.558Z,101728.19
2019-02-12T22:28:13.987Z,101712.81
2019-02-12T22:31:20.413Z,101705.20
2019-02-12T22:34:28.342Z,101688.10
2019-02-12T22:37:34.641Z,101686.89
2019-02-12T22:40:41.016Z,101675.78
2019-02-12T22:43:47.966Z,101652.97
2019-02-12T22:46:54.247Z,101653.59
2019-02-12T22:50:00.448Z,101650.75
2019-02-12T22:53:07.007Z,101639.59
2019-02-12T22:56:13.351Z,101625.38
2019-02-12T22:59:20.893Z,101616.78
2019-02-12T23:02:27.310Z,101609.59
2019-02-12T23:05:33.646Z,101596.22
2019-02-12T23:08:40.003Z,101593.06
2019-02-12T23:11:46.322Z,101582.44
2019-02-12T23:14:52.683Z,101569.02
2019-02-12T23:17:59.117Z,101546.81
2019-02-12T23:21:05.466Z,101535.19
2019-02-12T23:24:11.869Z,101518.20
2019-02-12T23:27:33.320Z,101525.34
2019-02-12T23:30:39.558Z,101494.05
2019-02-12T23:33:45.898Z,101490.56
2019-02-12T23:36:52.175Z,101489.64
2019-02-12T23:39:58.533Z,101459.98
2019-02-12T23:43:04.958Z,101460.43
2019-02-12T23:46:11.309Z,101452.26
2019-02-12T23:49:17.574Z,101426.39
2019-02-12T23:52:23.958Z,101423.16
2019-02-12T23:55:30.399Z,101409.38
2019-02-12T23:58:36.651Z,101400.07
